Levelock, Alaska
Current Conditions -  °F | °C
As of 10:21 PM on Saturday 22 Nov 2014 (Local Time) from PFWS Reporting Station
Light Rain Light Rain  
Wind Chill: 34°   Ceiling: 3200
Heat Index: 34°   Visibility: 10mi
Dew Point: 32°   Wind: 3mph
Humidity: 93%   Direction: 30°NNE
Pressure: 29.13"   Gusts: NA
Location:  59.11°N, 156.87°W
Report Text: PFWS 230721Z AUTO 03003KT 10SM -RA OVC032 01/00 A2913 RMK AO2 UPB04E07RAB07 P0000 FZRANO
Loading
Personal Weather Stations






























Interactive Weather Map New forecast layout! Learn more

10-Day Weather Forecast

Advertisements
Track Severe Weather on mobile